Historique des mesures à Cassis (13260), France
Quotidien Résumé Janvier 27, 2017 Unités:  US    Métrique   Métrique/US
« Précédent (Jour)
Suivant (Jour) »
Quotidien Hebdomadaire Mensuel Annuel Période au choix
  Maximum: Minimum: Moyenne:
Température: 32 °F 50.7 °F 52.2 °F
Point de rosée: 32 °F 43.5 °F 43.9 °F
Humidité: Humidity % 66 % 70 %
Vitesse du vent: WindSpeedKMH mph 0.0 mph 4.1 mph
Rafales: WindSpeedGustKMH mph - -
Vent:- - SE
Pression: 0 in 29.9 in -
Précipitations: 0 in    
Historical Graphs
 
 
Mesures pour : Janvier 27, 2017
Heure Temperature Point de rosée Pression Vent Vitesse du vent Rafales Humidité Pluie (par heure) Conditions
32 °F 32 °F 0 in Calm     Humidity % 0 in SoftwareType W/m2
00:10 50.7 °F 45.3 °F 30.1 in SE 7.6 mph 12.2 mph 82 % 0 in open2300-1.11 W/m2
01:11 50.7 °F 44.8 °F 30.1 in SE 1.4 mph 6.1 mph 80 % 0 in open2300-1.11 W/m2
02:10 51.1 °F 44.8 °F 30.1 in SW 2.6 mph 8.2 mph 79 % 0 in open2300-1.11 W/m2
03:11 52 °F 46 °F 30.1 in Calm     80 % 0 in open2300-1.11 W/m2
04:10 52 °F 45.3 °F 30.1 in SE 2.1 mph 8.2 mph 78 % 0 in open2300-1.11 W/m2
05:11 52.2 °F 45.5 °F 30.1 in ESE 4.7 mph 4.7 mph 78 % 0 in open2300-1.11 W/m2
06:10 51.3 °F 45 °F 30.1 in ESE 1.4 mph 1.4 mph 79 % 0 in open2300-1.11 W/m2
07:11 50.9 °F 44.2 °F 30.1 in Calm   9.3 mph 78 % 0 in open2300-1.11 W/m2
08:10 51.4 °F 44.1 °F 30.1 in Calm   7.6 mph 76 % 0 in open2300-1.11 W/m2
10:10 52.5 °F 43.9 °F 30.1 in ESE 4.0 mph 4.0 mph 72 % 0 in open2300-1.11 W/m2
11:11 53.4 °F 43.9 °F 30.1 in ESE 5.0 mph 7.2 mph 70 % 0 in open2300-1.11 W/m2
12:10 54.1 °F 44.2 °F 30.1 in SE 1.1 mph 2.6 mph 69 % 0 in open2300-1.11 W/m2
13:11 55.2 °F 44.4 °F 30 in SE 2.6 mph 8.2 mph 67 % 0 in open2300-1.11 W/m2
14:10 55.6 °F 44.4 °F 30 in SE 8.2 mph 8.2 mph 66 % 0 in open2300-1.11 W/m2
15:11 55.2 °F 44.4 °F 30 in ESE 7.6 mph 8.2 mph 67 % 0 in open2300-1.11 W/m2
16:10 54.9 °F 44.4 °F 30 in Calm   14.3 mph 68 % 0 in open2300-1.11 W/m2
17:11 54.1 °F 43.9 °F 30 in South 13.7 mph 13.7 mph 68 % 0 in open2300-1.11 W/m2
18:10 53.8 °F 43.9 °F 30 in East 1.8 mph 13.0 mph 69 % 0 in open2300-1.11 W/m2
19:11 54 °F 44.1 °F 30 in Calm   9.3 mph 69 % 0 in open2300-1.11 W/m2
20:10 54 °F 43.5 °F 30 in SE 6.8 mph 6.8 mph 68 % 0 in open2300-1.11 W/m2
21:11 54.1 °F 43.9 °F 30 in East 18.0 mph 18.0 mph 68 % 0 in open2300-1.11 W/m2
22:10 54.1 °F 43.9 °F 29.9 in ESE 5.8 mph 9.7 mph 68 % 0 in open2300-1.11 W/m2
23:11 54.1 °F 44.2 °F 29.9 in ESE 3.5 mph 9.3 mph 69 % 0 in open2300-1.11 W/m2
Observations météo à CASSIS
WU-History script by Weather Underground - 1 mb